Tropical Cyclones
[Index]
Main Index Home Page Stock Weather Photos Extreme Storms Discussion Storm News and Storm Chasing Reports Tropical Cyclones / Hurricanes / Typhoons Weather Data and Links Wild Fires / Bushfires Weather Observation Techniques Weather Picture Catalogue Tornado Pictures and Reports Stock Video Footage and DVDs for sale
Season 1998-1999 Tropical Cyclone 199923 Track Map
Season 1998-1999 Summaries (Operational Data): [AU] [SIO] [SPAC] [SH]
<<- Previous TC | 1998-1999 Season | Next TC ->>

click for intensity scale information  Lat/long Grid: Show Hide

 Date Labels: Show Hide

Operational Tropical Cyclone Data : JTWC Advisories

Name: 199923
Number: 9923

21 Feb 1999 18:00 UTC to 04 Mar 1999 18:00 UTC

    date/time    lat    long     hPa   cat  kts
1999-02-21 18   22.0    37.0    1009                     
1999-02-22 18   22.0    37.0    1007                     
1999-02-23 06   21.0    35.0    1005         20          
1999-02-24 06   21.0    35.0    1005         25          
1999-02-24 12   21.2    35.5    1005         25          
1999-02-25 06   20.6    36.0    1002         25          
1999-02-25 12   20.6    36.0    1000         25          
1999-02-25 18   20.6    36.2    1000         25          
1999-02-26 00   20.5    36.3    1000         25          
1999-02-26 06   20.5    36.4    1000         25          
1999-02-26 12   20.9    36.7    1000         25          
1999-02-26 18   20.7    37.1    1000         25          
1999-02-27 00   20.8    37.6    1000         25          
1999-02-27 06   21.3    38.1    1000         25          
1999-02-27 12   21.3    38.4    1000         25          
1999-02-27 18   22.8    39.6    1000         25          
1999-02-28 00   21.9    40.6    1002         20          
1999-02-28 06   22.4    41.1    1002         20          
1999-02-28 12   23.2    42.3                             
1999-03-01 00   24.0    42.7                             
1999-03-01 06   25.1    43.5                             
1999-03-04 00   22.3    37.9    1002         25          
1999-03-04 06   21.3    36.6    1002         25          
1999-03-04 12   20.4    36.1    1002         25          
1999-03-04 18   19.4    35.6    1002         25          
Winds are 10-min average.

Tropical cyclone tracks developed by Michael Bath using operational warnings and advisories and Google Maps.


[Australian Severe Weather index] [Copyright Notice] [Email Contacts] [Search This Site] [Privacy Policy]
Document: tropical_cyclone_199923.htm Updated: 28 May 2013